Terminal Aerodrome Forecast
Issued by NWS

Home | Current Version | Previous Version | Text Only | Print | Product List | Glossary On
Versions: 1 2 3 4 5 6 7 8 9 10 11 12 13 14 15 16 17 18 19 20 21 22 23 24 25 26 27
616
FTUS44 KFWD 200251 AAB
TAFDAL
TAF AMD
KDAL 200251Z 2003/2024 17012KT P6SM VCTS SCT060CB BKN250
      TEMPO 2003/2005 34015G25KT
     FM200500 17010KT P6SM BKN250
     FM201100 18015KT P6SM BKN012
     FM201500 18015KT P6SM SCT040=

USA.gov is the U.S. government's official web portal to all federal, state and local government web resources and services.